Time;durP1;ratioP1;P1;durP2;ratioP2;P2;SDS_P1;SDS_P2;PMS_P1;PMS_P2;Temp;Humidity;BMP_temperature;BMP_pressure;BME280_temperature;BME280_humidity;BME280_pressure;Samples;Min_cycle;Max_cycle;Signal;HPM_P1;HPM_P2
2022/06/24 00:01:21;;;;;;;3.38;3.17;;;;;;;;;;5077688;28;20204;-58
2022/06/24 00:03:49;;;;;;;3.33;3.13;;;;;;;;;;5077799;28;20279;-58
2022/06/24 00:06:17;;;;;;;3.33;3.13;;;;;;;;;;5077864;28;20556;-58
2022/06/24 00:08:48;;;;;;;3.60;3.40;;;;;;;;;;5078082;28;20672;-58
2022/06/24 00:11:16;;;;;;;3.25;3.05;;;;;;;;;;5080558;28;20246;-58
2022/06/24 00:13:45;;;;;;;3.60;3.40;;;;;;;;;;5081338;28;20259;-58
2022/06/24 00:16:12;;;;;;;3.30;3.10;;;;;;;;;;5081635;28;20204;-58
2022/06/24 00:18:40;;;;;;;3.30;3.10;;;;;;;;;;5081303;28;20267;-58
2022/06/24 00:21:13;;;;;;;3.40;3.20;;;;;;;;;;5081453;28;20200;-58
2022/06/24 00:23:41;;;;;;;3.17;3.05;;;;;;;;;;5081873;28;20204;-59
2022/06/24 00:26:08;;;;;;;3.53;3.33;;;;;;;;;;5081698;28;20204;-59
2022/06/24 00:28:36;;;;;;;3.20;3.00;;;;;;;;;;5081617;28;20633;-58
2022/06/24 00:31:05;;;;;;;3.60;3.40;;;;;;;;;;5081137;28;20204;-58
2022/06/24 00:33:37;;;;;;;2.90;2.70;;;;;;;;;;5081608;28;20204;-58
2022/06/24 00:36:06;;;;;;;3.20;3.05;;;;;;;;;;5081673;28;20201;-58
2022/06/24 00:38:35;;;;;;;3.20;3.00;;;;;;;;;;5080786;28;20227;-60
2022/06/24 00:41:04;;;;;;;3.25;3.05;;;;;;;;;;5080538;28;20196;-59
2022/06/24 00:43:35;;;;;;;3.40;3.10;;;;;;;;;;5081006;28;20546;-59
2022/06/24 00:46:12;;;;;;;3.33;3.13;;;;;;;;;;5081294;28;20239;-58
2022/06/24 00:48:43;;;;;;;3.30;3.00;;;;;;;;;;5081409;28;20231;-58
2022/06/24 00:51:10;;;;;;;3.25;2.95;;;;;;;;;;5081302;28;20227;-59
2022/06/24 00:53:45;;;;;;;3.28;3.08;;;;;;;;;;5080938;28;20232;-59
2022/06/24 00:56:13;;;;;;;3.05;2.85;;;;;;;;;;5081427;28;20204;-58
2022/06/24 00:58:41;;;;;;;3.28;3.05;;;;;;;;;;5081119;28;20588;-58
2022/06/24 01:01:11;;;;;;;3.03;2.83;;;;;;;;;;5080912;28;20205;-58
2022/06/24 01:03:40;;;;;;;2.90;2.70;;;;;;;;;;5080862;28;20204;-58
2022/06/24 01:06:08;;;;;;;3.20;3.00;;;;;;;;;;5080402;28;20209;-58
2022/06/24 01:08:35;;;;;;;3.10;2.78;;;;;;;;;;5080971;28;20200;-58
2022/06/24 01:11:03;;;;;;;3.15;2.95;;;;;;;;;;5080648;28;20236;-58
2022/06/24 01:13:31;;;;;;;3.20;3.00;;;;;;;;;;5080453;28;20239;-59
2022/06/24 01:15:58;;;;;;;3.05;2.85;;;;;;;;;;5080933;28;20204;-58
2022/06/24 01:18:27;;;;;;;3.25;2.80;;;;;;;;;;5080767;28;20278;-58
2022/06/24 01:20:55;;;;;;;4.05;2.70;;;;;;;;;;5079708;28;20254;-58
2022/06/24 01:23:27;;;;;;;3.35;2.80;;;;;;;;;;5080685;28;20244;-58
2022/06/24 01:25:55;;;;;;;2.97;2.78;;;;;;;;;;5080554;28;20214;-58
2022/06/24 01:28:22;;;;;;;3.13;2.92;;;;;;;;;;5080250;28;20265;-58
2022/06/24 01:30:49;;;;;;;2.97;2.78;;;;;;;;;;5080366;28;20325;-58
2022/06/24 01:33:17;;;;;;;3.47;2.83;;;;;;;;;;5079890;28;20546;-58
2022/06/24 01:35:47;;;;;;;2.88;2.67;;;;;;;;;;5080570;28;20244;-59
2022/06/24 01:38:14;;;;;;;3.08;2.90;;;;;;;;;;5079949;28;20212;-58
2022/06/24 01:40:43;;;;;;;3.28;3.08;;;;;;;;;;5079947;28;20269;-58
2022/06/24 01:43:10;;;;;;;3.17;2.97;;;;;;;;;;5079838;28;20570;-58
2022/06/24 01:45:39;;;;;;;3.15;2.95;;;;;;;;;;5079439;28;20204;-58
2022/06/24 01:48:07;;;;;;;3.15;2.95;;;;;;;;;;5080250;28;20240;-58
2022/06/24 01:50:35;;;;;;;3.25;2.95;;;;;;;;;;5079729;28;20657;-58
2022/06/24 01:53:02;;;;;;;2.75;2.65;;;;;;;;;;5079718;28;20208;-58
2022/06/24 01:55:29;;;;;;;3.20;3.00;;;;;;;;;;5079862;28;20212;-59
2022/06/24 01:57:58;;;;;;;3.35;3.15;;;;;;;;;;5078971;28;20272;-58
2022/06/24 02:00:26;;;;;;;3.30;3.00;;;;;;;;;;5079387;28;20303;-58
2022/06/24 02:02:53;;;;;;;3.10;2.90;;;;;;;;;;5079134;28;20212;-58
2022/06/24 02:05:21;;;;;;;3.17;2.97;;;;;;;;;;5079278;28;20277;-59
2022/06/24 02:07:49;;;;;;;3.30;3.10;;;;;;;;;;5079871;28;20208;-58
2022/06/24 02:15:47;;;;;;;3.38;3.17;;;;;;;;;;5078964;28;20330;-59
2022/06/24 02:18:15;;;;;;;2.95;2.83;;;;;;;;;;5079230;28;20286;-58
2022/06/24 02:20:43;;;;;;;3.20;3.00;;;;;;;;;;5079281;28;20208;-58
2022/06/24 02:23:10;;;;;;;3.10;2.90;;;;;;;;;;5079479;28;20560;-58
2022/06/24 02:25:38;;;;;;;3.25;3.05;;;;;;;;;;5078861;28;20283;-58
2022/06/24 02:28:07;;;;;;;2.97;2.78;;;;;;;;;;5079054;28;20291;-58
2022/06/24 02:30:35;;;;;;;3.28;3.08;;;;;;;;;;5079311;28;20303;-58
2022/06/24 02:33:02;;;;;;;3.17;2.97;;;;;;;;;;5077291;28;20591;-58
2022/06/24 02:35:30;;;;;;;3.17;2.97;;;;;;;;;;5079220;28;20292;-58
2022/06/24 02:37:58;;;;;;;3.10;2.90;;;;;;;;;;5079167;28;20236;-58
2022/06/24 02:43:13;;;;;;;3.38;3.17;;;;;;;;;;5076584;28;20193;-59
2022/06/24 02:45:41;;;;;;;3.22;3.03;;;;;;;;;;5079280;28;20482;-58
2022/06/24 02:48:08;;;;;;;3.28;3.08;;;;;;;;;;5078895;28;20310;-58
2022/06/24 02:50:39;;;;;;;3.10;2.90;;;;;;;;;;5078727;28;20200;-58
2022/06/24 02:53:07;;;;;;;3.08;2.88;;;;;;;;;;5077523;28;20200;-58
2022/06/24 02:55:34;;;;;;;3.15;2.95;;;;;;;;;;5078374;28;20196;-58
2022/06/24 02:58:02;;;;;;;3.33;3.13;;;;;;;;;;5078864;28;20623;-58
2022/06/24 03:00:31;;;;;;;2.80;2.60;;;;;;;;;;5078169;28;20320;-58
2022/06/24 03:02:59;;;;;;;3.10;2.90;;;;;;;;;;5078563;28;20211;-58
2022/06/24 03:05:27;;;;;;;3.17;2.95;;;;;;;;;;5078295;28;20212;-58
2022/06/24 03:07:54;;;;;;;3.00;2.80;;;;;;;;;;5078395;28;20212;-58
2022/06/24 03:10:22;;;;;;;3.25;3.05;;;;;;;;;;5078382;28;20527;-58
2022/06/24 03:12:50;;;;;;;3.30;3.00;;;;;;;;;;5078509;28;20260;-58
2022/06/24 03:15:17;;;;;;;3.25;3.05;;;;;;;;;;5078082;28;20282;-59
2022/06/24 03:17:46;;;;;;;3.38;3.05;;;;;;;;;;5078161;28;20556;-59
2022/06/24 03:20:14;;;;;;;3.38;3.17;;;;;;;;;;5077062;28;20220;-58
2022/06/24 03:22:42;;;;;;;3.50;3.30;;;;;;;;;;5077730;28;20224;-59
2022/06/24 03:25:10;;;;;;;3.60;3.40;;;;;;;;;;5078581;28;20204;-58
2022/06/24 03:27:38;;;;;;;3.38;3.10;;;;;;;;;;5078044;28;20254;-58
2022/06/24 03:30:06;;;;;;;3.35;3.15;;;;;;;;;;5077701;28;20285;-59
2022/06/24 03:32:34;;;;;;;3.80;3.50;;;;;;;;;;5077568;28;20289;-58
2022/06/24 03:35:03;;;;;;;3.40;3.10;;;;;;;;;;5077736;28;20209;-59
2022/06/24 03:37:31;;;;;;;3.22;3.03;;;;;;;;;;5078096;28;20200;-59
2022/06/24 03:39:59;;;;;;;3.40;3.10;;;;;;;;;;5077538;28;20262;-59
2022/06/24 03:42:27;;;;;;;3.47;3.28;;;;;;;;;;5077628;28;20230;-58
2022/06/24 03:44:55;;;;;;;3.17;2.90;;;;;;;;;;5076465;28;20224;-59
2022/06/24 03:47:23;;;;;;;3.38;3.10;;;;;;;;;;5076941;28;20212;-58
2022/06/24 03:49:51;;;;;;;3.35;3.08;;;;;;;;;;5077364;28;20538;-58
2022/06/24 03:52:21;;;;;;;3.20;3.00;;;;;;;;;;5077328;28;20215;-58
2022/06/24 03:54:48;;;;;;;3.78;3.58;;;;;;;;;;5077297;28;20200;-58
2022/06/24 03:57:16;;;;;;;3.40;3.17;;;;;;;;;;5077295;28;20208;-58
2022/06/24 03:59:43;;;;;;;3.33;3.13;;;;;;;;;;5077242;28;20574;-58
2022/06/24 04:02:10;;;;;;;3.00;2.80;;;;;;;;;;5077024;28;20207;-58
2022/06/24 04:04:38;;;;;;;3.35;3.05;;;;;;;;;;5077180;28;20482;-58
2022/06/24 04:07:06;;;;;;;3.25;3.05;;;;;;;;;;5077131;28;20200;-58
2022/06/24 04:09:35;;;;;;;3.20;3.00;;;;;;;;;;5077234;28;20204;-58
2022/06/24 04:12:03;;;;;;;3.30;3.10;;;;;;;;;;5077414;28;20283;-58
2022/06/24 04:17:15;;;;;;;3.45;3.25;;;;;;;;;;5076545;28;20590;-59
2022/06/24 04:19:42;;;;;;;3.20;3.00;;;;;;;;;;5076983;28;20236;-58
2022/06/24 04:22:10;;;;;;;3.50;3.20;;;;;;;;;;5076520;28;20200;-58
2022/06/24 04:24:40;;;;;;;3.42;3.22;;;;;;;;;;5076755;28;20212;-58
2022/06/24 04:27:07;;;;;;;3.40;3.20;;;;;;;;;;5077314;28;20243;-58
2022/06/24 04:29:35;;;;;;;3.60;3.40;;;;;;;;;;5076296;28;20208;-58
2022/06/24 04:32:02;;;;;;;3.47;3.22;;;;;;;;;;5076530;28;20240;-58
2022/06/24 04:34:33;;;;;;;3.50;3.20;;;;;;;;;;5076516;28;20243;-58
2022/06/24 04:37:00;;;;;;;3.63;3.33;;;;;;;;;;5076415;28;20204;-58
2022/06/24 04:39:28;;;;;;;3.65;3.38;;;;;;;;;;5076533;28;20239;-58
2022/06/24 04:41:57;;;;;;;3.78;3.47;;;;;;;;;;5075410;28;20262;-58
2022/06/24 04:44:26;;;;;;;3.33;3.13;;;;;;;;;;5075722;28;20250;-58
2022/06/24 04:46:54;;;;;;;3.42;3.22;;;;;;;;;;5076484;28;20208;-59
2022/06/24 04:49:24;;;;;;;3.63;3.35;;;;;;;;;;5075531;28;20200;-59
2022/06/24 04:51:51;;;;;;;3.47;3.28;;;;;;;;;;5076578;28;20232;-58
2022/06/24 04:54:19;;;;;;;3.60;3.40;;;;;;;;;;5075978;28;20247;-59
2022/06/24 04:56:46;;;;;;;3.50;3.30;;;;;;;;;;5077235;28;20216;-58
2022/06/24 04:59:15;;;;;;;3.60;3.30;;;;;;;;;;5078565;28;20213;-58
2022/06/24 05:01:43;;;;;;;3.50;3.30;;;;;;;;;;5078905;28;20294;-58
2022/06/24 05:04:10;;;;;;;3.53;3.33;;;;;;;;;;5078755;28;20212;-58
2022/06/24 05:06:38;;;;;;;3.53;3.22;;;;;;;;;;5078437;28;20204;-59
2022/06/24 05:09:05;;;;;;;3.08;2.88;;;;;;;;;;5077302;28;20201;-59
2022/06/24 05:11:34;;;;;;;3.42;3.22;;;;;;;;;;5077964;28;20250;-59
2022/06/24 05:14:02;;;;;;;3.30;3.10;;;;;;;;;;5077096;28;20236;-59
2022/06/24 05:16:31;;;;;;;3.70;3.47;;;;;;;;;;5077020;28;20754;-58
2022/06/24 05:18:59;;;;;;;3.58;3.38;;;;;;;;;;5077278;28;20303;-59
2022/06/24 05:21:26;;;;;;;3.70;3.40;;;;;;;;;;5077243;28;20231;-59
2022/06/24 05:23:54;;;;;;;3.50;3.20;;;;;;;;;;5076390;28;20310;-59
2022/06/24 05:26:21;;;;;;;3.38;3.17;;;;;;;;;;5076615;28;20202;-58
2022/06/24 05:28:49;;;;;;;3.25;3.05;;;;;;;;;;5076862;28;20200;-58
2022/06/24 05:31:17;;;;;;;3.60;3.35;;;;;;;;;;5076799;28;20302;-59
2022/06/24 05:33:46;;;;;;;3.65;3.45;;;;;;;;;;5077046;28;20270;-59
2022/06/24 05:36:13;;;;;;;3.63;3.42;;;;;;;;;;5076905;28;20230;-59
2022/06/24 05:38:41;;;;;;;3.00;2.80;;;;;;;;;;5077596;28;20664;-59
2022/06/24 05:41:09;;;;;;;3.58;3.38;;;;;;;;;;5077698;28;20216;-59
2022/06/24 05:43:36;;;;;;;3.38;3.13;;;;;;;;;;5076967;28;20208;-63
2022/06/24 05:46:04;;;;;;;3.55;2.97;;;;;;;;;;5076771;28;20653;-59
2022/06/24 05:48:32;;;;;;;3.58;3.20;;;;;;;;;;5076783;28;20250;-59
2022/06/24 05:51:01;;;;;;;3.08;2.88;;;;;;;;;;5077355;28;20200;-58
2022/06/24 05:56:13;;;;;;;3.25;3.05;;;;;;;;;;5076456;28;20191;-59
2022/06/24 05:58:41;;;;;;;3.47;3.20;;;;;;;;;;5076171;28;20660;-59
2022/06/24 06:01:10;;;;;;;3.10;2.83;;;;;;;;;;5076847;28;20314;-58
2022/06/24 06:03:38;;;;;;;3.33;2.72;;;;;;;;;;5076211;28;20246;-59
2022/06/24 06:06:07;;;;;;;4.25;3.17;;;;;;;;;;5076704;28;20219;-59
2022/06/24 06:08:35;;;;;;;4.00;3.08;;;;;;;;;;5076889;28;20297;-59
2022/06/24 06:11:03;;;;;;;3.35;3.08;;;;;;;;;;5076725;28;20200;-58
2022/06/24 06:13:30;;;;;;;3.17;2.88;;;;;;;;;;5077270;28;20575;-60
2022/06/24 06:15:58;;;;;;;4.15;3.17;;;;;;;;;;5077082;28;20323;-59
2022/06/24 06:18:25;;;;;;;3.35;3.15;;;;;;;;;;5076703;28;20307;-59
2022/06/24 06:20:53;;;;;;;4.55;2.90;;;;;;;;;;5076883;28;20318;-58
2022/06/24 06:23:21;;;;;;;3.45;3.15;;;;;;;;;;5077496;28;20205;-59
2022/06/24 06:25:50;;;;;;;4.65;2.90;;;;;;;;;;5076825;28;20247;-59
2022/06/24 06:28:17;;;;;;;4.32;3.20;;;;;;;;;;5077906;28;20549;-59
2022/06/24 06:30:47;;;;;;;4.55;3.13;;;;;;;;;;5076468;28;20192;-58
2022/06/24 06:33:15;;;;;;;4.45;3.50;;;;;;;;;;5075593;28;20301;-59
2022/06/24 06:35:43;;;;;;;3.50;3.30;;;;;;;;;;5075974;28;20738;-59
2022/06/24 06:38:10;;;;;;;3.30;3.00;;;;;;;;;;5076037;28;20232;-59
2022/06/24 06:40:40;;;;;;;3.65;3.30;;;;;;;;;;5076677;28;20236;-59
2022/06/24 06:43:07;;;;;;;4.00;3.35;;;;;;;;;;5075164;28;20554;-59
2022/06/24 06:45:35;;;;;;;3.60;3.30;;;;;;;;;;5075192;28;20236;-59
2022/06/24 06:48:02;;;;;;;3.47;3.17;;;;;;;;;;5072357;28;20208;-59
2022/06/24 06:50:30;;;;;;;3.40;3.10;;;;;;;;;;5075710;28;20545;-59
2022/06/24 06:52:57;;;;;;;4.05;2.92;;;;;;;;;;5075710;28;20283;-59
2022/06/24 06:55:25;;;;;;;3.65;2.90;;;;;;;;;;5075284;28;20219;-58
2022/06/24 06:57:55;;;;;;;3.92;3.20;;;;;;;;;;5074444;28;20200;-59
2022/06/24 07:00:24;;;;;;;5.80;2.85;;;;;;;;;;5073312;28;20801;-58
2022/06/24 07:02:52;;;;;;;3.30;3.00;;;;;;;;;;5075774;28;20196;-58
2022/06/24 07:05:20;;;;;;;4.00;3.10;;;;;;;;;;5075220;28;20266;-58
2022/06/24 07:07:47;;;;;;;4.00;3.33;;;;;;;;;;5075773;28;20232;-59
2022/06/24 07:10:15;;;;;;;3.45;3.15;;;;;;;;;;5075638;28;20209;-58
2022/06/24 07:12:43;;;;;;;3.60;3.30;;;;;;;;;;5075651;28;20589;-59
2022/06/24 07:15:14;;;;;;;3.28;3.00;;;;;;;;;;5075247;28;20246;-59
2022/06/24 07:17:41;;;;;;;4.40;3.38;;;;;;;;;;5074984;28;20583;-59
2022/06/24 07:20:10;;;;;;;3.25;3.05;;;;;;;;;;5074434;28;20274;-59
2022/06/24 07:22:37;;;;;;;3.90;3.28;;;;;;;;;;5072593;28;20262;-59
2022/06/24 07:25:05;;;;;;;3.70;3.40;;;;;;;;;;5075169;28;20923;-59
2022/06/24 07:27:33;;;;;;;3.50;3.30;;;;;;;;;;5074402;28;20196;-59
2022/06/24 07:30:01;;;;;;;3.45;3.22;;;;;;;;;;5074695;28;20688;-59
2022/06/24 07:32:30;;;;;;;4.00;3.22;;;;;;;;;;5074212;28;20262;-59
2022/06/24 07:34:57;;;;;;;3.65;3.30;;;;;;;;;;5074404;28;20189;-59
2022/06/24 07:37:25;;;;;;;3.58;3.15;;;;;;;;;;5074223;28;20211;-60
2022/06/24 07:39:52;;;;;;;3.40;3.10;;;;;;;;;;5075030;28;20204;-59
2022/06/24 07:42:20;;;;;;;4.53;3.40;;;;;;;;;;5075211;28;20506;-59
2022/06/24 07:44:48;;;;;;;3.92;3.63;;;;;;;;;;5075035;28;20210;-58
2022/06/24 07:47:16;;;;;;;3.70;3.40;;;;;;;;;;5075761;28;20250;-59
2022/06/24 07:49:44;;;;;;;4.10;3.78;;;;;;;;;;5074431;28;20204;-58
2022/06/24 07:52:12;;;;;;;3.92;3.60;;;;;;;;;;5075157;28;20750;-59
2022/06/24 07:54:40;;;;;;;4.82;3.47;;;;;;;;;;5074196;28;20251;-59
2022/06/24 07:57:08;;;;;;;5.93;3.50;;;;;;;;;;5054812;28;20201;-57
2022/06/24 07:59:39;;;;;;;4.30;3.58;;;;;;;;;;5072583;28;20196;-58
2022/06/24 08:02:08;;;;;;;3.72;3.28;;;;;;;;;;5074285;28;20255;-58
2022/06/24 08:04:36;;;;;;;3.70;3.40;;;;;;;;;;5074871;28;20210;-58
2022/06/24 08:07:05;;;;;;;3.60;3.40;;;;;;;;;;5073612;28;20200;-58
2022/06/24 08:09:35;;;;;;;3.88;3.58;;;;;;;;;;5074772;28;20204;-58
2022/06/24 08:12:03;;;;;;;3.58;3.38;;;;;;;;;;5074641;28;20238;-58
2022/06/24 08:14:31;;;;;;;3.80;3.50;;;;;;;;;;5074801;28;20267;-58
2022/06/24 08:16:58;;;;;;;4.18;3.80;;;;;;;;;;5075223;28;20231;-58
2022/06/24 08:19:26;;;;;;;4.40;4.03;;;;;;;;;;5074929;28;20675;-57
2022/06/24 08:21:53;;;;;;;3.72;3.35;;;;;;;;;;5074126;28;20236;-57
2022/06/24 08:24:22;;;;;;;4.20;3.90;;;;;;;;;;5074445;28;20321;-58
2022/06/24 08:26:50;;;;;;;3.70;3.50;;;;;;;;;;5074654;28;20239;-58
2022/06/24 08:29:18;;;;;;;3.80;3.50;;;;;;;;;;5074340;28;20204;-58
2022/06/24 08:31:45;;;;;;;3.85;3.60;;;;;;;;;;5077937;28;20196;-57
2022/06/24 08:34:13;;;;;;;4.28;3.95;;;;;;;;;;5078606;28;20290;-57
2022/06/24 08:36:40;;;;;;;4.40;4.07;;;;;;;;;;5078136;28;20235;-58
2022/06/24 08:39:08;;;;;;;4.20;3.90;;;;;;;;;;5077574;28;20202;-58
2022/06/24 08:41:41;;;;;;;4.30;3.90;;;;;;;;;;5078670;28;20287;-58
2022/06/24 08:44:08;;;;;;;4.25;3.95;;;;;;;;;;5078727;28;20200;-61
2022/06/24 08:46:36;;;;;;;4.97;4.57;;;;;;;;;;5078541;28;20227;-58
2022/06/24 08:49:04;;;;;;;5.07;4.63;;;;;;;;;;5078223;28;20239;-58
2022/06/24 08:51:31;;;;;;;4.90;4.50;;;;;;;;;;5077714;28;20575;-57
2022/06/24 08:54:00;;;;;;;4.65;4.32;;;;;;;;;;5077551;28;20282;-58
2022/06/24 08:56:29;;;;;;;4.82;4.43;;;;;;;;;;5077694;28;20318;-58
2022/06/24 08:58:58;;;;;;;5.28;4.78;;;;;;;;;;5077917;28;20204;-58
2022/06/24 09:01:26;;;;;;;4.90;4.50;;;;;;;;;;5077872;28;20228;-57
2022/06/24 09:03:54;;;;;;;5.13;4.72;;;;;;;;;;5078017;28;20567;-57
2022/06/24 09:06:21;;;;;;;5.15;4.75;;;;;;;;;;5078431;28;20692;-58
2022/06/24 09:08:51;;;;;;;4.82;4.32;;;;;;;;;;5077641;28;20295;-58
2022/06/24 09:11:19;;;;;;;5.03;4.70;;;;;;;;;;5077089;28;20300;-58
2022/06/24 09:13:47;;;;;;;5.03;4.63;;;;;;;;;;5076609;28;20302;-58
2022/06/24 09:16:17;;;;;;;4.82;4.43;;;;;;;;;;5076858;28;20204;-57
2022/06/24 09:18:52;;;;;;;4.60;4.20;;;;;;;;;;5077279;28;20204;-58
2022/06/24 09:21:23;;;;;;;4.10;3.80;;;;;;;;;;5077320;28;20306;-58
2022/06/24 09:23:55;;;;;;;4.20;3.92;;;;;;;;;;5076644;28;20209;-57
2022/06/24 09:26:30;;;;;;;4.35;3.95;;;;;;;;;;5076909;28;20212;-58
2022/06/24 09:28:57;;;;;;;5.07;4.68;;;;;;;;;;5076973;28;20214;-58
2022/06/24 09:31:27;;;;;;;4.85;4.55;;;;;;;;;;5077080;28;20291;-58
2022/06/24 09:33:55;;;;;;;5.82;5.32;;;;;;;;;;5077301;28;20295;-57
2022/06/24 09:36:25;;;;;;;5.47;4.97;;;;;;;;;;5077453;28;20543;-58
2022/06/24 09:38:56;;;;;;;5.22;4.82;;;;;;;;;;5077323;28;20219;-58
2022/06/24 09:41:24;;;;;;;5.25;4.85;;;;;;;;;;5076727;28;20224;-58
2022/06/24 09:43:52;;;;;;;4.53;4.22;;;;;;;;;;5076418;28;20204;-58
2022/06/24 09:46:21;;;;;;;5.10;4.70;;;;;;;;;;5076847;28;20204;-58
2022/06/24 09:48:53;;;;;;;5.43;4.93;;;;;;;;;;5056886;28;20236;-57
2022/06/24 09:51:21;;;;;;;5.57;5.18;;;;;;;;;;5068300;28;20196;-58
2022/06/24 09:53:51;;;;;;;5.75;5.25;;;;;;;;;;5076319;28;20266;-57
2022/06/24 09:56:19;;;;;;;5.07;4.68;;;;;;;;;;5077437;28;20196;-58
2022/06/24 10:00:40;;;;;;;4.90;4.50;;;;;;;;;;5076766;28;20784;-57
2022/06/24 10:01:34;;;;;;;5.10;4.70;;;;;;;;;;5077010;28;20221;-58
2022/06/24 10:04:04;;;;;;;5.28;4.88;;;;;;;;;;5076664;28;20200;-58
2022/06/24 10:06:33;;;;;;;5.18;4.88;;;;;;;;;;5075484;28;20205;-57
2022/06/24 10:09:03;;;;;;;5.20;4.80;;;;;;;;;;5076063;28;20282;-58
2022/06/24 10:11:34;;;;;;;5.40;5.00;;;;;;;;;;5075960;28;20212;-58
2022/06/24 10:14:03;;;;;;;5.90;5.40;;;;;;;;;;5075456;28;20702;-58
2022/06/24 10:16:34;;;;;;;5.30;4.80;;;;;;;;;;5076701;28;20298;-57
2022/06/24 10:19:06;;;;;;;5.70;5.13;;;;;;;;;;5056287;28;20217;-58
2022/06/24 10:21:37;;;;;;;5.20;4.80;;;;;;;;;;5056522;28;20725;-58
2022/06/24 10:24:12;;;;;;;5.50;5.00;;;;;;;;;;5069428;28;20192;-58
2022/06/24 10:26:41;;;;;;;5.03;4.65;;;;;;;;;;5075455;28;20208;-58
2022/06/24 10:29:23;;;;;;;4.57;4.28;;;;;;;;;;5069546;28;20235;-58
2022/06/24 10:32:01;;;;;;;5.40;4.70;;;;;;;;;;5075491;28;20204;-58
2022/06/24 10:34:32;;;;;;;4.93;4.53;;;;;;;;;;5076374;28;20203;-57
2022/06/24 10:37:02;;;;;;;6.03;5.07;;;;;;;;;;5074541;28;20204;-58
2022/06/24 10:39:30;;;;;;;9.45;5.40;;;;;;;;;;5094820;28;20204;-58
2022/06/24 10:42:02;;;;;;;7.38;5.63;;;;;;;;;;5080447;28;20320;-57
2022/06/24 10:44:31;;;;;;;7.10;5.28;;;;;;;;;;5075959;28;20200;-58
2022/06/24 10:47:18;;;;;;;6.43;4.90;;;;;;;;;;5076123;28;20266;-57
2022/06/24 10:50:06;;;;;;;6.00;5.40;;;;;;;;;;5075279;28;20227;-57
2022/06/24 10:52:35;;;;;;;6.10;5.50;;;;;;;;;;5075255;28;20200;-58
2022/06/24 10:55:23;;;;;;;6.55;5.82;;;;;;;;;;5074498;28;20212;-57
2022/06/24 10:57:51;;;;;;;5.95;5.45;;;;;;;;;;5075272;28;20663;-58
2022/06/24 11:00:19;;;;;;;6.50;5.93;;;;;;;;;;5075251;28;20584;-57
2022/06/24 11:02:47;;;;;;;6.50;6.00;;;;;;;;;;5074791;28;20297;-57
2022/06/24 11:05:18;;;;;;;6.40;5.90;;;;;;;;;;5075466;28;20235;-58
2022/06/24 11:07:48;;;;;;;6.50;6.00;;;;;;;;;;5073480;28;20234;-57
2022/06/24 11:10:19;;;;;;;6.20;5.65;;;;;;;;;;5074327;28;20201;-57
2022/06/24 11:12:49;;;;;;;7.10;6.60;;;;;;;;;;5073868;28;20335;-58
2022/06/24 11:15:17;;;;;;;6.20;5.70;;;;;;;;;;5075518;28;20627;-57
2022/06/24 11:17:44;;;;;;;6.70;6.20;;;;;;;;;;5075455;28;20212;-58
2022/06/24 11:20:13;;;;;;;6.30;5.72;;;;;;;;;;5075024;28;20279;-57
2022/06/24 11:22:45;;;;;;;6.72;6.13;;;;;;;;;;5074387;28;20224;-57
2022/06/24 11:25:15;;;;;;;6.40;5.90;;;;;;;;;;5075498;28;20204;-57
2022/06/24 11:27:43;;;;;;;6.13;5.68;;;;;;;;;;5074577;28;20235;-58
2022/06/24 11:30:11;;;;;;;7.05;6.45;;;;;;;;;;5075180;28;20235;-57
2022/06/24 11:32:51;;;;;;;7.10;5.57;;;;;;;;;;5074805;28;20196;-57
2022/06/24 11:35:19;;;;;;;7.10;6.50;;;;;;;;;;5073868;28;20211;-58
2022/06/24 11:37:47;;;;;;;6.68;6.18;;;;;;;;;;5073939;28;20687;-57
2022/06/24 11:40:22;;;;;;;6.90;6.40;;;;;;;;;;5074198;28;20270;-57
2022/06/24 11:42:49;;;;;;;7.65;6.18;;;;;;;;;;5074781;28;20228;-58
2022/06/24 11:45:17;;;;;;;6.68;6.18;;;;;;;;;;5073518;28;20442;-58
2022/06/24 11:47:48;;;;;;;6.93;6.35;;;;;;;;;;5073424;28;20204;-58
2022/06/24 11:50:19;;;;;;;7.70;7.10;;;;;;;;;;5074508;28;20212;-57
2022/06/24 11:52:48;;;;;;;6.50;6.10;;;;;;;;;;5074646;28;20196;-57
2022/06/24 11:55:27;;;;;;;6.55;6.05;;;;;;;;;;5074719;28;20247;-58
2022/06/24 11:57:56;;;;;;;6.68;6.18;;;;;;;;;;5053750;28;20299;-57
2022/06/24 12:00:24;;;;;;;7.13;6.63;;;;;;;;;;5054283;28;20251;-58
2022/06/24 12:02:52;;;;;;;7.30;6.70;;;;;;;;;;5054042;28;20255;-57
2022/06/24 12:05:20;;;;;;;8.13;7.55;;;;;;;;;;5069851;28;20200;-58
2022/06/24 12:07:48;;;;;;;7.00;6.50;;;;;;;;;;5081553;28;20207;-57
2022/06/24 12:10:17;;;;;;;8.35;7.75;;;;;;;;;;5081305;28;20464;-58
2022/06/24 12:12:57;;;;;;;7.03;6.63;;;;;;;;;;5080303;28;20242;-57
2022/06/24 12:15:26;;;;;;;6.82;6.20;;;;;;;;;;5081282;28;20265;-57
2022/06/24 12:17:54;;;;;;;7.13;6.63;;;;;;;;;;5080909;28;20277;-57
2022/06/24 12:20:25;;;;;;;7.70;7.10;;;;;;;;;;5081640;28;20546;-58
2022/06/24 12:23:11;;;;;;;7.18;6.57;;;;;;;;;;5080179;28;20228;-58
2022/06/24 12:25:40;;;;;;;8.30;7.70;;;;;;;;;;5080835;28;20294;-58
2022/06/24 12:28:15;;;;;;;9.00;8.27;;;;;;;;;;5080868;28;20614;-58
2022/06/24 12:30:44;;;;;;;8.80;8.18;;;;;;;;;;5080805;28;20264;-58
2022/06/24 12:33:13;;;;;;;9.00;8.20;;;;;;;;;;5080550;28;20199;-58
2022/06/24 12:35:43;;;;;;;9.13;8.35;;;;;;;;;;5080302;28;20322;-58
2022/06/24 12:38:13;;;;;;;9.00;8.27;;;;;;;;;;5080385;28;20212;-58
2022/06/24 12:40:40;;;;;;;8.40;7.60;;;;;;;;;;5079968;28;20208;-57
2022/06/24 12:43:09;;;;;;;8.73;7.93;;;;;;;;;;5080599;28;20277;-58
2022/06/24 12:45:39;;;;;;;8.15;7.55;;;;;;;;;;5080125;28;20219;-57
2022/06/24 12:51:01;;;;;;;7.78;7.18;;;;;;;;;;5080788;28;20195;-57
2022/06/24 12:53:29;;;;;;;8.10;7.50;;;;;;;;;;5081275;28;20227;-57
2022/06/24 12:55:57;;;;;;;9.25;8.45;;;;;;;;;;5080644;28;20591;-57
2022/06/24 12:58:25;;;;;;;8.77;7.88;;;;;;;;;;5080416;28;20205;-57
2022/06/24 13:00:54;;;;;;;8.20;7.57;;;;;;;;;;5080398;28;20236;-57
2022/06/24 13:03:23;;;;;;;8.45;7.78;;;;;;;;;;5080647;28;20232;-57
2022/06/24 13:05:50;;;;;;;8.57;7.88;;;;;;;;;;5080830;28;20210;-57
2022/06/24 13:08:19;;;;;;;8.45;7.85;;;;;;;;;;5080357;28;20204;-57
2022/06/24 13:10:46;;;;;;;8.48;7.78;;;;;;;;;;5079906;28;20278;-57
2022/06/24 13:13:14;;;;;;;7.93;7.30;;;;;;;;;;5080806;28;20260;-57
2022/06/24 13:15:41;;;;;;;7.38;6.78;;;;;;;;;;5080618;28;20243;-57
2022/06/24 13:18:10;;;;;;;7.03;6.50;;;;;;;;;;5075877;28;20707;-57
2022/06/24 13:20:38;;;;;;;6.85;6.35;;;;;;;;;;5077432;28;20211;-57
2022/06/24 13:23:05;;;;;;;6.93;6.38;;;;;;;;;;5077243;28;20285;-57
2022/06/24 13:25:34;;;;;;;6.90;6.30;;;;;;;;;;5077333;28;20205;-57
2022/06/24 13:28:02;;;;;;;6.90;6.30;;;;;;;;;;5076826;28;20236;-57
2022/06/24 13:30:29;;;;;;;6.82;6.43;;;;;;;;;;5077866;28;20243;-57
2022/06/24 13:32:57;;;;;;;7.03;6.43;;;;;;;;;;5077819;28;20508;-57
2022/06/24 13:35:25;;;;;;;6.13;5.72;;;;;;;;;;5077284;28;20243;-57
2022/06/24 13:37:53;;;;;;;6.43;5.95;;;;;;;;;;5077325;28;20204;-57
2022/06/24 13:40:20;;;;;;;6.20;5.60;;;;;;;;;;5076332;28;20236;-57
2022/06/24 13:42:49;;;;;;;5.82;5.35;;;;;;;;;;5076790;28;20224;-57
2022/06/24 13:45:17;;;;;;;5.78;5.38;;;;;;;;;;5076924;28;20238;-57
2022/06/24 13:47:45;;;;;;;5.72;5.32;;;;;;;;;;5077751;28;20204;-58
2022/06/24 13:50:12;;;;;;;5.60;5.20;;;;;;;;;;5076797;28;20220;-57
2022/06/24 13:52:41;;;;;;;5.68;5.07;;;;;;;;;;5077219;28;20201;-58
2022/06/24 13:55:09;;;;;;;5.53;5.13;;;;;;;;;;5076666;28;20227;-57
2022/06/24 13:57:36;;;;;;;5.95;5.45;;;;;;;;;;5076939;28;20209;-57
2022/06/24 14:00:05;;;;;;;5.80;5.40;;;;;;;;;;5077115;28;20595;-57
2022/06/24 14:02:33;;;;;;;6.45;5.88;;;;;;;;;;5076569;28;20278;-57
2022/06/24 14:05:01;;;;;;;6.68;6.07;;;;;;;;;;5077490;28;20259;-57
2022/06/24 14:07:29;;;;;;;6.00;5.50;;;;;;;;;;5076395;28;20793;-57
2022/06/24 14:09:58;;;;;;;6.20;5.75;;;;;;;;;;5076288;28;20204;-57
2022/06/24 14:12:25;;;;;;;6.18;5.78;;;;;;;;;;5076167;28;20192;-57
2022/06/24 14:14:53;;;;;;;6.35;5.85;;;;;;;;;;5076236;28;20583;-57
2022/06/24 14:17:20;;;;;;;6.30;5.80;;;;;;;;;;5075406;28;20201;-57
2022/06/24 14:19:47;;;;;;;5.90;5.57;;;;;;;;;;5075895;28;20215;-57
2022/06/24 14:22:15;;;;;;;6.65;6.13;;;;;;;;;;5076507;28;20262;-57
2022/06/24 14:24:41;;;;;;;6.38;5.97;;;;;;;;;;5075792;28;20235;-57
2022/06/24 14:27:11;;;;;;;6.22;5.72;;;;;;;;;;5075674;28;20196;-57
2022/06/24 14:29:39;;;;;;;6.55;6.15;;;;;;;;;;5076231;28;20208;-57
2022/06/24 14:32:07;;;;;;;6.95;6.45;;;;;;;;;;5075913;28;20244;-57
2022/06/24 14:34:36;;;;;;;6.88;6.30;;;;;;;;;;5076084;28;20239;-57
2022/06/24 14:40:10;;;;;;;7.28;6.78;;;;;;;;;;5076090;28;20204;-57
2022/06/24 14:42:37;;;;;;;7.75;7.15;;;;;;;;;;5074673;28;20223;-58
2022/06/24 14:45:05;;;;;;;7.40;6.80;;;;;;;;;;5074506;28;20204;-58
2022/06/24 14:47:33;;;;;;;7.57;6.88;;;;;;;;;;5074370;28;20562;-57
2022/06/24 14:50:01;;;;;;;7.32;6.72;;;;;;;;;;5074612;28;20204;-57
2022/06/24 14:52:28;;;;;;;6.85;6.35;;;;;;;;;;5074441;28;20241;-58
2022/06/24 14:54:56;;;;;;;7.28;6.68;;;;;;;;;;5074242;28;20205;-57
2022/06/24 14:57:23;;;;;;;6.50;6.10;;;;;;;;;;5074615;28;20211;-57
2022/06/24 14:59:53;;;;;;;6.57;6.18;;;;;;;;;;5074105;28;20207;-58
2022/06/24 15:02:20;;;;;;;7.10;6.50;;;;;;;;;;5074047;28;20523;-57
2022/06/24 15:04:48;;;;;;;6.88;6.38;;;;;;;;;;5073740;28;20472;-57
2022/06/24 15:07:15;;;;;;;6.57;6.18;;;;;;;;;;5073689;28;20446;-58
2022/06/24 15:09:43;;;;;;;7.10;6.60;;;;;;;;;;5070888;28;20274;-57
2022/06/24 15:12:11;;;;;;;6.60;6.10;;;;;;;;;;5073369;28;20623;-57